createdAt,value
2023-03-22T00:01:31.041Z,90.85
2023-03-22T00:03:58.023Z,90.86
2023-03-22T00:06:25.399Z,90.82
2023-03-22T00:08:53.454Z,90.78
2023-03-22T00:11:21.849Z,90.77
2023-03-22T00:13:48.593Z,90.62
2023-03-22T00:16:15.709Z,90.52
2023-03-22T00:18:42.417Z,90.73
2023-03-22T00:21:13.143Z,90.70
2023-03-22T00:23:40.151Z,90.37
2023-03-22T00:26:07.708Z,90.57
2023-03-22T00:28:35.443Z,91.02
2023-03-22T00:31:03.509Z,90.56
2023-03-22T00:33:31.140Z,90.60
2023-03-22T00:36:00.405Z,90.75
2023-03-22T00:38:44.946Z,90.96
2023-03-22T00:41:14.596Z,90.94
2023-03-22T00:43:41.618Z,90.73
2023-03-22T00:46:09.648Z,90.63
2023-03-22T00:48:36.425Z,90.64
2023-03-22T00:51:03.121Z,91.10
2023-03-22T00:53:29.744Z,91.23
2023-03-22T00:55:57.151Z,91.61
2023-03-22T00:58:23.791Z,91.78
2023-03-22T01:00:50.512Z,91.77
2023-03-22T01:03:17.542Z,91.73
2023-03-22T01:05:49.418Z,91.67
2023-03-22T01:08:16.857Z,91.96
2023-03-22T01:10:44.663Z,92.04
2023-03-22T01:13:11.942Z,92.02
2023-03-22T01:15:38.655Z,92.04
2023-03-22T01:18:05.613Z,92.21
2023-03-22T01:20:32.352Z,91.89
2023-03-22T01:22:59.652Z,92.28
2023-03-22T01:25:26.234Z,92.12
2023-03-22T01:27:53.982Z,92.34
2023-03-22T01:30:20.637Z,92.03
2023-03-22T01:32:47.272Z,92.17
2023-03-22T01:35:13.882Z,92.43
2023-03-22T01:37:40.736Z,92.35
2023-03-22T01:40:08.182Z,92.83
2023-03-22T01:42:34.801Z,92.56
2023-03-22T01:45:13.678Z,92.95
2023-03-22T01:47:41.940Z,92.54
2023-03-22T01:50:08.985Z,92.83
2023-03-22T01:52:36.333Z,93.03
2023-03-22T01:55:05.048Z,93.18
2023-03-22T01:57:33.642Z,93.25
2023-03-22T02:00:00.801Z,93.20
2023-03-22T02:02:30.991Z,93.74
2023-03-22T02:04:58.288Z,93.58
2023-03-22T02:07:27.757Z,94.01
2023-03-22T02:09:54.482Z,94.43
2023-03-22T02:12:46.278Z,94.23
2023-03-22T02:15:17.754Z,94.37
2023-03-22T02:17:44.259Z,94.66
2023-03-22T02:20:16.873Z,94.94
2023-03-22T02:22:53.439Z,95.17
2023-03-22T02:25:20.322Z,95.54
2023-03-22T02:27:56.235Z,95.27
2023-03-22T02:30:41.454Z,95.56
2023-03-22T02:33:20.191Z,95.53
2023-03-22T02:35:49.652Z,95.54
2023-03-22T02:38:28.397Z,96.12
2023-03-22T02:41:05.055Z,95.96
2023-03-22T02:43:58.831Z,95.97
2023-03-22T02:46:30.845Z,96.27
2023-03-22T02:49:04.779Z,96.47
2023-03-22T02:51:44.061Z,96.47
2023-03-22T02:54:18.918Z,96.75
2023-03-22T02:56:55.366Z,96.81
2023-03-22T02:59:23.707Z,96.96
2023-03-22T03:01:56.396Z,97.51
2023-03-22T03:04:30.343Z,97.22
2023-03-22T03:07:02.852Z,97.22
2023-03-22T03:09:30.068Z,97.88
2023-03-22T03:11:56.665Z,97.97
2023-03-22T03:14:29.002Z,97.87
2023-03-22T03:17:11.712Z,98.23
2023-03-22T03:19:48.538Z,98.33
2023-03-22T03:22:24.356Z,98.40
2023-03-22T03:25:23.211Z,98.95
2023-03-22T03:28:01.126Z,99.14
2023-03-22T03:30:41.208Z,99.39
2023-03-22T03:33:10.204Z,99.48
2023-03-22T03:35:42.223Z,99.79
2023-03-22T03:38:12.334Z,99.64
2023-03-22T03:40:45.326Z,99.65
2023-03-22T03:43:12.600Z,99.96
2023-03-22T03:45:42.392Z,100.00
2023-03-22T03:48:13.291Z,100.00
2023-03-22T03:50:40.206Z,100.00
2023-03-22T03:53:07.026Z,100.00
2023-03-22T03:55:33.842Z,100.00
2023-03-22T03:58:00.439Z,100.00
2023-03-22T04:00:27.181Z,100.00
2023-03-22T04:02:53.791Z,100.00
2023-03-22T04:05:20.378Z,100.00
2023-03-22T04:07:46.941Z,100.00
2023-03-22T04:10:13.666Z,100.00
2023-03-22T04:12:40.310Z,100.00
2023-03-22T04:15:07.508Z,100.00
2023-03-22T04:17:34.112Z,100.00
2023-03-22T04:20:05.315Z,100.00
2023-03-22T04:22:34.755Z,100.00
2023-03-22T04:25:01.740Z,100.00
2023-03-22T04:27:28.375Z,100.00
2023-03-22T04:29:55.951Z,100.00
2023-03-22T04:32:25.432Z,100.00
2023-03-22T04:34:52.898Z,100.00
2023-03-22T04:37:22.690Z,100.00
2023-03-22T04:39:49.282Z,100.00
2023-03-22T04:42:16.170Z,100.00
2023-03-22T04:44:42.769Z,100.00
2023-03-22T04:47:09.602Z,100.00
2023-03-22T04:49:36.231Z,100.00
2023-03-22T04:52:03.025Z,100.00
2023-03-22T04:54:29.626Z,100.00
2023-03-22T04:56:56.199Z,100.00
2023-03-22T04:59:22.811Z,100.00
2023-03-22T05:01:50.667Z,100.00
2023-03-22T05:04:17.964Z,100.00
2023-03-22T05:06:45.291Z,100.00
2023-03-22T05:09:12.814Z,100.00
2023-03-22T05:11:40.789Z,100.00
2023-03-22T05:14:09.240Z,100.00
2023-03-22T05:16:36.282Z,100.00
2023-03-22T05:19:03.267Z,100.00
2023-03-22T05:21:36.664Z,100.00
2023-03-22T05:24:03.615Z,100.00
2023-03-22T05:26:30.199Z,100.00
2023-03-22T05:28:56.917Z,100.00
2023-03-22T05:31:23.840Z,100.00
2023-03-22T05:33:51.970Z,100.00
2023-03-22T05:36:19.786Z,100.00
2023-03-22T05:38:46.902Z,100.00
2023-03-22T05:41:14.022Z,100.00
2023-03-22T05:43:41.284Z,100.00
2023-03-22T05:46:09.553Z,100.00
2023-03-22T05:48:36.921Z,100.00
2023-03-22T05:51:07.404Z,100.00
2023-03-22T05:53:34.067Z,100.00
2023-03-22T05:56:03.539Z,100.00
2023-03-22T05:58:31.659Z,99.85
2023-03-22T06:01:01.587Z,99.71
2023-03-22T06:03:28.602Z,99.57
2023-03-22T06:05:55.357Z,99.33
2023-03-22T06:08:26.377Z,99.15
2023-03-22T06:10:53.550Z,99.01
2023-03-22T06:13:20.839Z,98.94
2023-03-22T06:15:47.602Z,99.04
2023-03-22T06:18:14.373Z,98.37
2023-03-22T06:20:41.563Z,98.59
2023-03-22T06:23:08.469Z,98.53
2023-03-22T06:25:35.095Z,98.21
2023-03-22T06:28:01.822Z,98.35
2023-03-22T06:30:28.643Z,97.88
2023-03-22T06:32:55.490Z,97.78
2023-03-22T06:35:22.234Z,97.59
2023-03-22T06:37:48.861Z,97.43
2023-03-22T06:40:15.725Z,97.38
2023-03-22T06:42:42.411Z,97.11
2023-03-22T06:45:09.423Z,97.01
2023-03-22T06:47:36.041Z,96.70
2023-03-22T06:50:02.767Z,96.73
2023-03-22T06:52:29.390Z,96.81
2023-03-22T06:54:56.969Z,96.63
2023-03-22T06:57:23.737Z,96.49
2023-03-22T06:59:50.383Z,96.25
2023-03-22T07:02:17.051Z,96.40
2023-03-22T07:04:46.204Z,96.37
2023-03-22T07:07:13.075Z,96.18
2023-03-22T07:09:41.177Z,96.04
2023-03-22T07:12:07.807Z,96.51
2023-03-22T07:14:34.709Z,95.97
2023-03-22T07:17:01.513Z,95.65
2023-03-22T07:19:28.399Z,95.88
2023-03-22T07:21:55.085Z,95.41
2023-03-22T07:24:21.757Z,95.22
2023-03-22T07:26:48.378Z,95.20
2023-03-22T07:29:14.956Z,94.59
2023-03-22T07:32:00.483Z,94.74
2023-03-22T07:34:27.225Z,94.50
2023-03-22T07:36:56.938Z,94.30
2023-03-22T07:39:24.969Z,94.45
2023-03-22T07:41:52.175Z,93.97
2023-03-22T07:44:18.772Z,93.88
2023-03-22T07:46:45.521Z,93.21
2023-03-22T07:49:12.122Z,92.79
2023-03-22T07:51:38.740Z,92.40
2023-03-22T07:54:07.624Z,92.44
2023-03-22T07:56:34.770Z,91.52
2023-03-22T07:59:01.510Z,91.54
2023-03-22T08:01:28.201Z,91.18
2023-03-22T08:03:55.002Z,91.03
2023-03-22T08:06:21.905Z,90.46
2023-03-22T08:08:48.531Z,90.42
2023-03-22T08:11:15.640Z,89.60
2023-03-22T08:13:47.349Z,89.52
2023-03-22T08:16:14.679Z,88.97
2023-03-22T08:18:43.608Z,88.17
2023-03-22T08:21:11.128Z,87.26
2023-03-22T08:23:42.034Z,86.80
2023-03-22T08:26:09.952Z,86.39
2023-03-22T08:28:36.946Z,85.98
2023-03-22T08:31:13.207Z,85.37
2023-03-22T08:33:40.608Z,84.68
2023-03-22T08:36:16.584Z,84.42
2023-03-22T08:38:44.952Z,83.73
2023-03-22T08:41:12.667Z,84.10
2023-03-22T08:43:39.464Z,83.50
2023-03-22T08:46:06.349Z,82.95
2023-03-22T08:48:33.053Z,82.94
2023-03-22T08:51:01.216Z,82.84
2023-03-22T08:53:28.131Z,82.59
2023-03-22T08:55:58.227Z,83.09
2023-03-22T08:58:25.141Z,82.81
2023-03-22T09:00:52.173Z,82.43
2023-03-22T09:03:18.968Z,82.94
2023-03-22T09:05:51.777Z,82.53
2023-03-22T09:08:19.739Z,81.90
2023-03-22T09:10:52.238Z,82.00
2023-03-22T09:13:19.924Z,81.63
2023-03-22T09:15:47.235Z,81.51
2023-03-22T09:18:16.423Z,81.39
2023-03-22T09:20:44.941Z,81.47
2023-03-22T09:23:13.028Z,80.98
2023-03-22T09:25:43.430Z,80.77
2023-03-22T09:28:10.458Z,80.98
2023-03-22T09:30:37.194Z,81.06
2023-03-22T09:33:04.593Z,80.93
2023-03-22T09:35:32.253Z,81.06
2023-03-22T09:37:59.981Z,81.19
2023-03-22T09:40:30.026Z,80.92
2023-03-22T09:42:59.679Z,80.75
2023-03-22T09:45:38.493Z,80.20
2023-03-22T09:48:11.853Z,79.99
2023-03-22T09:50:53.471Z,79.73
2023-03-22T09:53:21.689Z,79.65
2023-03-22T09:56:00.927Z,79.90
2023-03-22T09:58:48.748Z,79.80
2023-03-22T10:01:28.378Z,79.14
2023-03-22T10:04:31.494Z,78.96
2023-03-22T10:07:24.710Z,79.15
2023-03-22T10:10:13.372Z,78.80
2023-03-22T10:12:46.871Z,78.49
2023-03-22T10:15:20.171Z,77.85
2023-03-22T10:17:52.050Z,77.73
2023-03-22T10:20:30.330Z,77.05
2023-03-22T10:22:58.207Z,76.98
2023-03-22T10:25:33.460Z,76.28
2023-03-22T10:28:00.290Z,75.27
2023-03-22T10:30:30.557Z,75.52
2023-03-22T10:33:02.695Z,74.98
2023-03-22T10:35:30.813Z,75.01
2023-03-22T10:38:02.913Z,74.42
2023-03-22T10:40:34.628Z,74.38
2023-03-22T10:43:07.270Z,74.44
2023-03-22T10:45:35.191Z,74.16
2023-03-22T10:48:13.391Z,74.13
2023-03-22T10:50:42.638Z,74.69
2023-03-22T10:53:20.395Z,74.72
2023-03-22T10:55:47.134Z,74.16
2023-03-22T10:58:14.672Z,74.02
2023-03-22T11:00:50.344Z,73.72
2023-03-22T11:03:27.632Z,73.25
2023-03-22T11:06:10.817Z,73.34
2023-03-22T11:08:46.844Z,72.66
2023-03-22T11:11:36.958Z,72.77
2023-03-22T11:14:06.598Z,72.75
2023-03-22T11:16:42.811Z,72.55
2023-03-22T11:19:15.655Z,72.31
2023-03-22T11:21:43.489Z,72.15
2023-03-22T11:24:13.224Z,72.09
2023-03-22T11:26:41.596Z,71.99
2023-03-22T11:29:14.433Z,72.32
2023-03-22T11:31:54.228Z,72.59
2023-03-22T11:34:23.613Z,72.05
2023-03-22T11:36:59.500Z,72.25
2023-03-22T11:39:28.518Z,72.37
2023-03-22T11:42:01.512Z,72.53
2023-03-22T11:44:29.779Z,73.05
2023-03-22T11:47:00.476Z,73.08
2023-03-22T11:49:49.377Z,73.87
2023-03-22T11:52:18.668Z,73.92
2023-03-22T11:54:46.522Z,73.99
2023-03-22T11:57:19.672Z,74.11
2023-03-22T11:59:49.650Z,74.10
2023-03-22T12:02:31.699Z,73.47
2023-03-22T12:05:07.333Z,73.08
2023-03-22T12:07:34.893Z,73.02
2023-03-22T12:10:06.643Z,72.65
2023-03-22T12:12:38.865Z,72.52
2023-03-22T12:15:16.183Z,71.96
2023-03-22T12:17:48.079Z,72.14
2023-03-22T12:20:42.667Z,71.85
2023-03-22T12:23:18.439Z,71.87
2023-03-22T12:25:55.919Z,71.62
2023-03-22T12:28:28.593Z,71.99
2023-03-22T12:30:59.207Z,71.52
2023-03-22T12:33:28.561Z,70.96
2023-03-22T12:36:02.679Z,71.22
2023-03-22T12:38:50.345Z,71.14
2023-03-22T12:41:26.370Z,71.28
2023-03-22T12:43:59.401Z,71.42
2023-03-22T12:46:33.568Z,71.46
2023-03-22T12:49:32.660Z,71.32
2023-03-22T12:53:02.474Z,71.46
2023-03-22T12:55:32.601Z,71.32
2023-03-22T12:57:59.874Z,71.73
2023-03-22T13:00:39.024Z,71.18
2023-03-22T13:03:20.288Z,71.17
2023-03-22T13:05:50.243Z,71.40
2023-03-22T13:08:22.519Z,71.73
2023-03-22T13:10:50.929Z,71.63
2023-03-22T13:13:24.296Z,71.74
2023-03-22T13:16:09.359Z,71.64
2023-03-22T13:18:36.402Z,71.85
2023-03-22T13:21:17.358Z,72.28
2023-03-22T13:24:20.916Z,72.46
2023-03-22T13:26:51.637Z,72.29
2023-03-22T13:29:24.142Z,72.54
2023-03-22T13:31:58.866Z,72.24
2023-03-22T13:34:58.221Z,72.46
2023-03-22T13:37:35.122Z,72.50
2023-03-22T13:40:15.397Z,72.94
2023-03-22T13:42:42.348Z,72.62
2023-03-22T13:45:27.898Z,72.70
2023-03-22T13:48:13.518Z,72.31
2023-03-22T13:50:40.804Z,72.00
2023-03-22T13:53:21.592Z,72.16
2023-03-22T13:55:54.374Z,72.08
2023-03-22T13:58:30.348Z,72.04
2023-03-22T14:00:57.478Z,72.49
2023-03-22T14:03:28.969Z,72.49
2023-03-22T14:06:04.983Z,72.27
2023-03-22T14:08:32.955Z,72.44
2023-03-22T14:11:24.456Z,72.46
2023-03-22T14:13:56.340Z,72.70
2023-03-22T14:16:37.176Z,72.35
2023-03-22T14:19:05.718Z,72.35
2023-03-22T14:21:38.808Z,72.36
2023-03-22T14:52:26.148Z,72.45
2023-03-22T14:54:59.518Z,72.43
2023-03-22T14:57:36.791Z,72.32
2023-03-22T15:00:16.595Z,72.56
2023-03-22T15:02:47.417Z,72.35
2023-03-22T15:05:18.422Z,72.21
2023-03-22T15:07:50.556Z,72.30
2023-03-22T15:10:20.913Z,72.71
2023-03-22T15:12:50.100Z,72.64
2023-03-22T15:15:18.582Z,72.76
2023-03-22T15:17:46.141Z,72.97
2023-03-22T15:20:20.870Z,73.04
2023-03-22T15:22:59.010Z,73.27
2023-03-22T15:25:35.138Z,73.61
2023-03-22T15:28:10.342Z,73.98
2023-03-22T15:30:37.153Z,74.17
2023-03-22T15:33:14.856Z,74.34
2023-03-22T15:35:42.695Z,74.54
2023-03-22T15:38:11.747Z,74.73
2023-03-22T15:40:42.069Z,75.07
2023-03-22T15:43:34.493Z,75.58
2023-03-22T15:46:19.465Z,75.44
2023-03-22T15:48:53.717Z,75.84
2023-03-22T15:51:22.618Z,75.99
2023-03-22T15:53:50.090Z,76.39
2023-03-22T15:56:29.148Z,76.77
2023-03-22T15:59:00.895Z,76.96
2023-03-22T16:01:28.660Z,76.80
2023-03-22T16:04:00.555Z,76.88
2023-03-22T16:06:29.364Z,77.13
2023-03-22T16:09:01.082Z,77.04
2023-03-22T16:11:29.274Z,76.88
2023-03-22T16:13:57.121Z,77.02
2023-03-22T16:16:25.916Z,76.64
2023-03-22T16:18:58.934Z,77.00
2023-03-22T16:21:31.074Z,77.24
2023-03-22T16:23:59.309Z,77.12
2023-03-22T16:26:26.317Z,77.22
2023-03-22T16:28:53.417Z,77.10
2023-03-22T16:31:22.090Z,77.85
2023-03-22T16:33:49.174Z,78.09
2023-03-22T16:36:23.348Z,77.88
2023-03-22T16:38:50.521Z,77.61
2023-03-22T16:41:26.752Z,77.95
2023-03-22T16:43:58.492Z,77.78
2023-03-22T16:46:28.455Z,77.28
2023-03-22T16:48:55.441Z,77.77
2023-03-22T16:51:24.850Z,77.27
2023-03-22T16:53:52.765Z,77.28
2023-03-22T16:56:22.630Z,77.70
2023-03-22T16:58:54.357Z,77.51
2023-03-22T17:01:21.996Z,77.61
2023-03-22T17:03:50.104Z,77.47
2023-03-22T17:06:26.185Z,77.63
2023-03-22T17:08:53.230Z,77.54
2023-03-22T17:11:25.426Z,77.89
2023-03-22T17:13:53.921Z,77.66
2023-03-22T17:16:21.430Z,77.66
2023-03-22T17:18:49.576Z,77.56
2023-03-22T17:21:18.593Z,77.69
2023-03-22T17:23:46.967Z,77.68
2023-03-22T17:26:14.705Z,77.23
2023-03-22T17:28:41.744Z,77.21
2023-03-22T17:31:09.578Z,77.08
2023-03-22T17:33:37.058Z,76.98
2023-03-22T17:36:03.922Z,77.19
2023-03-22T17:38:34.689Z,77.34
2023-03-22T17:41:10.655Z,77.57
2023-03-22T17:43:37.407Z,77.42
2023-03-22T17:46:41.870Z,77.72
2023-03-22T17:48:51.012Z,78.08
2023-03-22T17:51:17.880Z,77.82
2023-03-22T17:54:35.471Z,78.48
2023-03-22T17:57:01.013Z,78.62
2023-03-22T17:59:18.400Z,78.52
2023-03-22T18:01:45.153Z,78.46
2023-03-22T18:04:11.916Z,78.93
2023-03-22T18:06:38.662Z,78.94
2023-03-22T18:09:08.436Z,78.86
2023-03-22T18:11:35.242Z,78.78
2023-03-22T18:14:13.835Z,78.97
2023-03-22T18:16:52.865Z,78.93
2023-03-22T18:19:21.174Z,79.60
2023-03-22T18:21:56.700Z,79.31
2023-03-22T18:24:27.035Z,79.20
2023-03-22T18:27:10.751Z,79.84
2023-03-22T18:29:38.257Z,79.82
2023-03-22T18:32:17.285Z,80.01
2023-03-22T18:34:45.779Z,80.53
2023-03-22T18:37:13.667Z,80.61
2023-03-22T18:40:18.188Z,80.61
2023-03-22T18:42:41.080Z,80.85
2023-03-22T18:45:17.258Z,80.88
2023-03-22T18:47:44.544Z,81.42
2023-03-22T18:50:13.590Z,81.47
2023-03-22T18:53:06.296Z,81.52
2023-03-22T18:55:29.809Z,81.63
2023-03-22T18:58:02.761Z,81.72
2023-03-22T19:00:29.756Z,81.86
2023-03-22T19:02:57.332Z,82.04
2023-03-22T19:05:25.698Z,82.05
2023-03-22T19:08:05.333Z,82.84
2023-03-22T19:10:40.827Z,82.92
2023-03-22T19:13:07.872Z,82.82
2023-03-22T19:15:44.962Z,83.07
2023-03-22T19:18:15.673Z,83.73
2023-03-22T19:20:57.697Z,84.09
2023-03-22T19:23:30.040Z,84.40
2023-03-22T19:25:57.311Z,84.77
2023-03-22T19:28:27.273Z,84.88
2023-03-22T19:30:56.588Z,84.98
2023-03-22T19:33:41.883Z,85.46
2023-03-22T19:36:10.884Z,85.59
2023-03-22T19:38:37.754Z,85.92
2023-03-22T19:41:38.717Z,86.19
2023-03-22T19:43:55.079Z,86.14
2023-03-22T19:46:22.036Z,87.30
2023-03-22T19:48:49.138Z,87.63
2023-03-22T19:51:17.302Z,87.94
2023-03-22T19:54:18.305Z,88.32
2023-03-22T19:56:31.555Z,89.24
2023-03-22T19:58:58.820Z,89.31
2023-03-22T20:01:26.451Z,90.11
2023-03-22T20:03:53.882Z,90.31
2023-03-22T20:06:22.212Z,90.60
2023-03-22T20:08:48.990Z,90.66
2023-03-22T20:11:25.964Z,91.03
2023-03-22T20:14:01.324Z,91.00
2023-03-22T20:16:28.700Z,91.28
2023-03-22T20:18:55.748Z,91.22
2023-03-22T20:21:23.416Z,91.03
2023-03-22T20:23:52.388Z,90.98
2023-03-22T20:26:19.702Z,91.18
2023-03-22T20:28:46.702Z,91.19
2023-03-22T20:31:15.765Z,91.34
2023-03-22T20:33:44.893Z,91.36
2023-03-22T20:36:13.255Z,90.95
2023-03-22T20:38:42.922Z,90.85
2023-03-22T20:41:14.863Z,90.90
2023-03-22T20:43:45.978Z,91.12
2023-03-22T20:46:13.846Z,91.41
2023-03-22T20:48:40.827Z,91.53
2023-03-22T20:51:07.742Z,91.62
2023-03-22T20:53:34.763Z,91.96
2023-03-22T20:56:01.445Z,92.21
2023-03-22T20:58:28.168Z,92.59
2023-03-22T21:00:54.996Z,92.83
2023-03-22T21:03:31.502Z,92.80
2023-03-22T21:05:59.502Z,93.38
2023-03-22T21:08:26.250Z,93.36
2023-03-22T21:10:52.954Z,93.69
2023-03-22T21:13:19.635Z,93.74
2023-03-22T21:15:46.477Z,93.34
2023-03-22T21:18:19.251Z,93.56
2023-03-22T21:20:46.151Z,93.87
2023-03-22T21:23:13.028Z,93.83
2023-03-22T21:25:39.982Z,94.13
2023-03-22T21:28:10.223Z,94.14
2023-03-22T21:30:39.200Z,94.32
2023-03-22T21:33:06.132Z,94.43
2023-03-22T21:35:34.220Z,94.51
2023-03-22T21:38:09.842Z,94.75
2023-03-22T21:40:37.813Z,94.70
2023-03-22T21:43:04.554Z,95.58
2023-03-22T21:45:34.687Z,95.58
2023-03-22T21:48:02.129Z,95.79
2023-03-22T21:50:28.871Z,96.17
2023-03-22T21:52:55.814Z,96.03
2023-03-22T21:55:22.540Z,96.02
2023-03-22T21:57:55.511Z,95.84
2023-03-22T22:00:25.085Z,95.92
2023-03-22T22:02:52.908Z,95.59
2023-03-22T22:05:24.243Z,95.38
2023-03-22T22:07:55.305Z,94.92
2023-03-22T22:10:23.421Z,95.17
2023-03-22T22:12:52.071Z,94.66
2023-03-22T22:15:20.005Z,94.72
2023-03-22T22:17:46.863Z,94.87
2023-03-22T22:20:19.068Z,95.01
2023-03-22T22:22:48.176Z,94.56
2023-03-22T22:25:17.822Z,95.03
2023-03-22T22:27:45.698Z,95.97
2023-03-22T22:30:17.407Z,96.64
2023-03-22T22:32:45.349Z,97.63
2023-03-22T22:35:12.194Z,98.43
2023-03-22T22:37:39.871Z,99.14
2023-03-22T22:40:12.327Z,99.43
2023-03-22T22:42:39.908Z,99.84
2023-03-22T22:45:07.912Z,100.00
2023-03-22T22:47:35.283Z,100.00
2023-03-22T22:50:02.695Z,100.00
2023-03-22T22:52:37.966Z,100.00
2023-03-22T22:55:12.978Z,100.00
2023-03-22T22:57:40.490Z,100.00
2023-03-22T23:00:12.247Z,100.00
2023-03-22T23:02:40.102Z,100.00
2023-03-22T23:05:08.209Z,100.00
2023-03-22T23:07:35.015Z,100.00
2023-03-22T23:10:01.938Z,100.00
2023-03-22T23:12:30.363Z,100.00
2023-03-22T23:14:57.829Z,100.00
2023-03-22T23:17:25.790Z,100.00
2023-03-22T23:19:57.767Z,100.00
2023-03-22T23:22:30.366Z,100.00
2023-03-22T23:24:58.735Z,99.78
2023-03-22T23:27:25.716Z,99.93
2023-03-22T23:29:52.397Z,99.69
2023-03-22T23:32:19.114Z,99.67
2023-03-22T23:34:45.801Z,99.79
2023-03-22T23:37:13.076Z,99.34
2023-03-22T23:39:39.907Z,99.60
2023-03-22T23:42:07.248Z,99.53
2023-03-22T23:44:34.284Z,99.64
2023-03-22T23:47:01.142Z,99.55
2023-03-22T23:49:28.062Z,99.63
2023-03-22T23:51:54.880Z,99.31
2023-03-22T23:54:21.755Z,98.83
2023-03-22T23:56:55.085Z,98.63
2023-03-22T23:59:23.148Z,98.09
